Sallum Plateau, Egypt
Current Conditions -  °F | °C
As of 12:00 PM on Wednesday 26 Nov 2014 (Local Time) from HEMM Reporting Station
Scattered Clouds Scattered Clouds  
Wind Chill: 66°   Ceiling: Unl
Heat Index: 66°   Visibility: 6mi
Dew Point: 50°   Wind: 14mph
Humidity: 56%   Direction: 330°NNW
Pressure: 30.06"   Gusts: NA
Location:  31.57°N, 25.13°E
Report Text: HEMM 261000Z 33012KT 9999 FEW020 SCT022 19/10 Q1018 NOSIG
Loading
Personal Weather Stations






























Interactive Weather Map New forecast layout! Learn more

10-Day Weather Forecast

Advertisements
Track Severe Weather on mobile